Latest Weather Observations for Arlington Reef

IDQ60801

Issued at 7:35 am EST Sunday 21 September 2014 (issued every 30 minutes, with the page automatically refreshed every 10 minutes)

About weather observations | Map of weather stations | Latest weather observations for QLD | Other Formats
Station Details ID: 200879 Name: ARLINGTON REEF Lat: -16.72 Lon: 146.11 Height: 0.0 m
Data from the previous 72 hours. | See also: Recent months at Arlington Reef
Date/Time
EST
Temp
°C
App
Temp
°C
Dew
Point
Rel
Hum
%
Delta-T
°C
Wind Press
QNH
hPa
Press
MSL
hPa
Rain
since 9 am
mm
Dir
 
Spd
km/h
Gust
km/h
Spd
kts
Gust
kts
21/07:30am - - - - - SE 24 28 13 15 1017.2 1017.2 -
21/07:00am - - - - - SSE 26 30 14 16 1016.7 1016.7 -
21/06:30am - - - - - SE 24 28 13 15 1016.3 1016.3 -
21/06:00am - - - - - SE 26 32 14 17 1016.0 1016.0 -
21/05:30am - - - - - SE 26 30 14 16 1015.9 1015.9 -
21/05:00am - - - - - SE 26 30 14 16 1015.4 1015.4 -
21/04:30am - - - - - SE 22 28 12 15 1015.1 1015.1 -
21/04:00am - - - - - SE 26 30 14 16 1015.0 1015.0 -
21/03:30am - - - - - SE 24 28 13 15 1015.1 1015.1 -
21/03:00am - - - - - SSE 24 30 13 16 1015.1 1015.1 -
21/02:30am - - - - - SE 24 28 13 15 1015.4 1015.4 -
21/02:00am - - - - - SE 20 24 11 13 1015.7 1015.7 -
21/01:30am - - - - - SE 19 22 10 12 1015.9 1015.9 -
21/01:00am - - - - - SE 17 22 9 12 1016.3 1016.3 -
21/12:30am - - - - - SE 19 20 10 11 1016.4 1016.4 -
21/12:00am - - - - - ESE 15 19 8 10 1016.8 1016.8 -
 
Date/Time
EST
Temp
°C
App
Temp
°C
Dew
Point
Rel
Hum
%
Delta-T
°C
Wind Press
QNH
hPa
Press
MSL
hPa
Rain
since 9 am
mm
Dir
 
Spd
km/h
Gust
km/h
Spd
kts
Gust
kts
20/11:30pm - - - - - ESE 15 19 8 10 1017.0 1017.0 -
20/11:00pm - - - - - SE 15 19 8 10 1017.0 1017.0 -
20/10:30pm - - - - - ESE 17 20 9 11 1017.1 1017.1 -
20/10:00pm - - - - - ESE 17 20 9 11 1017.1 1017.1 -
20/09:30pm - - - - - ESE 17 20 9 11 1016.9 1016.9 -
20/09:00pm - - - - - ESE 19 22 10 12 1016.9 1016.9 -
20/08:30pm - - - - - ESE 19 22 10 12 1016.6 1016.6 -
20/08:00pm - - - - - ESE 20 24 11 13 1016.3 1016.3 -
20/07:30pm - - - - - E 20 22 11 12 1016.2 1016.2 -
20/07:00pm - - - - - ESE 20 24 11 13 1016.0 1016.0 -
20/06:30pm - - - - - ESE 20 24 11 13 1015.6 1015.6 -
20/06:00pm - - - - - ESE 20 24 11 13 1015.1 1015.1 -
20/05:30pm - - - - - ESE 22 26 12 14 1014.7 1014.7 -
20/05:00pm - - - - - SE 22 26 12 14 1014.4 1014.4 -
20/04:30pm - - - - - SE 22 26 12 14 1014.1 1014.1 -
20/04:00pm - - - - - SE 22 26 12 14 1013.9 1013.9 -
20/03:30pm - - - - - SSE 24 26 13 14 1013.7 1013.7 -
20/03:00pm - - - - - SSE 22 28 12 15 1013.7 1013.7 -
20/02:30pm - - - - - SSE 24 28 13 15 1014.1 1014.1 -
20/02:00pm - - - - - SSE 24 30 13 16 1014.4 1014.4 -
20/01:30pm - - - - - S 26 32 14 17 1014.7 1014.7 -
20/01:00pm - - - - - SSE 22 26 12 14 1015.2 1015.2 -
20/12:30pm - - - - - S 26 30 14 16 1015.7 1015.7 -
20/12:00pm - - - - - S 24 30 13 16 1016.1 1016.1 -
20/11:30am - - - - - S 22 30 12 16 1016.7 1016.7 -
20/11:00am - - - - - S 24 28 13 15 1017.3 1017.3 -
20/10:30am - - - - - S 24 28 13 15 1017.7 1017.7 -
20/10:00am - - - - - S 24 26 13 14 1017.8 1017.8 -
20/09:30am - - - - - S 24 26 13 14 1017.9 1017.9 -
20/09:00am - - - - - S 22 26 12 14 1018.1 1018.1 -
20/08:30am - - - - - S 22 26 12 14 1018.1 1018.1 -
20/08:00am - - - - - SSE 20 28 11 15 1017.7 1017.7 -
20/07:30am - - - - - SSE 20 24 11 13 1017.3 1017.3 -
20/07:00am - - - - - SSE 19 24 10 13 1016.7 1016.7 -
20/06:30am - - - - - SSE 17 20 9 11 1016.3 1016.3 -
20/06:00am - - - - - SSE 15 19 8 10 1016.0 1016.0 -
20/05:30am - - - - - SSE 15 19 8 10 1015.7 1015.7 -
20/05:00am - - - - - SSE 15 17 8 9 1015.6 1015.6 -
20/04:30am - - - - - SSE 15 20 8 11 1015.4 1015.4 -
20/04:00am - - - - - SSE 13 17 7 9 1015.4 1015.4 -
20/03:30am - - - - - SE 13 15 7 8 1015.6 1015.6 -
20/03:00am - - - - - SE 11 13 6 7 1015.8 1015.8 -
20/02:30am - - - - - ESE 9 13 5 7 1016.0 1016.0 -
20/02:00am - - - - - ESE 11 15 6 8 1016.1 1016.1 -
20/01:30am - - - - - ESE 13 15 7 8 1016.5 1016.5 -
20/01:00am - - - - - ESE 15 19 8 10 1016.8 1016.8 -
20/12:30am - - - - - ESE 15 19 8 10 1017.2 1017.2 -
20/12:00am - - - - - ESE 19 22 10 12 1017.5 1017.5 -
 
Date/Time
EST
Temp
°C
App
Temp
°C
Dew
Point
Rel
Hum
%
Delta-T
°C
Wind Press
QNH
hPa
Press
MSL
hPa
Rain
since 9 am
mm
Dir
 
Spd
km/h
Gust
km/h
Spd
kts
Gust
kts
19/11:30pm - - - - - ESE 17 20 9 11 1017.6 1017.6 -
19/11:00pm - - - - - ESE 19 22 10 12 1017.6 1017.6 -
19/10:30pm - - - - - ESE 19 22 10 12 1017.9 1017.9 -
19/10:00pm - - - - - ESE 20 24 11 13 1017.8 1017.8 -
19/09:30pm - - - - - ESE 22 26 12 14 1017.8 1017.8 -
19/09:00pm - - - - - ESE 22 26 12 14 1017.7 1017.7 -
19/08:30pm - - - - - ESE 22 26 12 14 1017.4 1017.4 -
19/08:00pm - - - - - SE 22 28 12 15 1017.2 1017.2 -
19/07:30pm - - - - - SE 24 28 13 15 1016.8 1016.8 -
19/07:00pm - - - - - SE 24 28 13 15 1016.5 1016.5 -
19/06:30pm - - - - - SE 24 28 13 15 1016.0 1016.0 -
19/06:00pm - - - - - SSE 22 26 12 14 1015.5 1015.5 -
19/05:30pm - - - - - SSE 22 28 12 15 1015.1 1015.1 -
19/05:00pm - - - - - SE 22 26 12 14 1014.8 1014.8 -
19/04:30pm - - - - - SSE 24 28 13 15 1014.9 1014.9 -
19/04:00pm - - - - - SSE 22 26 12 14 1014.9 1014.9 -
19/03:30pm - - - - - SSE 22 26 12 14 1014.9 1014.9 -
19/03:00pm - - - - - SSE 20 28 11 15 1015.1 1015.1 -
19/02:30pm - - - - - SSE 22 28 12 15 1015.5 1015.5 -
19/02:00pm - - - - - SSE 22 26 12 14 1015.8 1015.8 -
19/01:30pm - - - - - S 22 28 12 15 1016.0 1016.0 -
19/01:00pm - - - - - SSE 22 26 12 14 1016.5 1016.5 -
19/12:30pm - - - - - SSE 22 26 12 14 1016.9 1016.9 -
19/12:00pm - - - - - S 24 28 13 15 1017.2 1017.2 -
19/11:30am - - - - - S 26 32 14 17 1017.5 1017.5 -
19/11:00am - - - - - S 26 32 14 17 1017.8 1017.8 -
19/10:30am - - - - - S 26 30 14 16 1018.4 1018.4 -
19/10:00am - - - - - S 26 30 14 16 1018.7 1018.7 -
19/09:30am - - - - - SSE 22 33 12 18 1018.8 1018.8 -
19/09:00am - - - - - SSE 24 30 13 16 1018.6 1018.6 -
19/08:30am - - - - - SSE 26 30 14 16 1018.5 1018.5 -
19/08:00am - - - - - SSE 24 28 13 15 1018.2 1018.2 -
19/07:30am - - - - - SE 22 28 12 15 1017.9 1017.9 -
19/07:00am - - - - - SSE 24 28 13 15 1017.5 1017.5 -
19/06:30am - - - - - SSE 24 30 13 16 1016.9 1016.9 -
19/06:00am - - - - - SSE 24 28 13 15 1016.5 1016.5 -
19/05:30am - - - - - SSE 26 30 14 16 1016.1 1016.1 -
19/05:00am - - - - - SE 24 30 13 16 1015.9 1015.9 -
19/04:30am - - - - - SSE 20 24 11 13 1015.7 1015.7 -
19/04:00am - - - - - SSE 20 24 11 13 1015.7 1015.7 -
19/03:30am - - - - - SE 19 22 10 12 1015.5 1015.5 -
19/03:00am - - - - - SSE 15 19 8 10 1015.3 1015.3 -
19/02:30am - - - - - SSE 11 15 6 8 1015.7 1015.7 -
19/02:00am - - - - - SSE 9 11 5 6 1015.8 1015.8 -
19/01:30am - - - - - SSE 7 9 4 5 1016.0 1016.0 -
19/01:00am - - - - - SE 6 7 3 4 1016.3 1016.3 -
19/12:30am - - - - - ESE 4 6 2 3 1016.6 1016.6 -
19/12:00am - - - - - E 4 7 2 4 1017.0 1017.0 -
 
Date/Time
EST
Temp
°C
App
Temp
°C
Dew
Point
Rel
Hum
%
Delta-T
°C
Wind Press
QNH
hPa
Press
MSL
hPa
Rain
since 9 am
mm
Dir
 
Spd
km/h
Gust
km/h
Spd
kts
Gust
kts
18/11:30pm - - - - - E 6 7 3 4 1017.1 1017.1 -
18/11:00pm - - - - - E 6 7 3 4 1017.0 1017.0 -
18/10:30pm - - - - - E 6 7 3 4 1017.1 1017.1 -
18/10:00pm - - - - - E 7 9 4 5 1016.9 1016.9 -
18/09:30pm - - - - - ESE 7 9 4 5 1016.9 1016.9 -
18/09:00pm - - - - - E 7 9 4 5 1016.8 1016.8 -
18/08:30pm - - - - - E 7 9 4 5 1016.5 1016.5 -
18/08:00pm - - - - - ESE 9 11 5 6 1016.1 1016.1 -
18/07:30pm - - - - - E 9 13 5 7 1015.9 1015.9 -
18/07:00pm - - - - - E 9 11 5 6 1015.7 1015.7 -
18/06:30pm - - - - - E 11 13 6 7 1015.6 1015.6 -
18/06:00pm - - - - - ESE 11 13 6 7 1015.4 1015.4 -
18/05:30pm - - - - - ESE 11 13 6 7 1015.3 1015.3 -
18/05:00pm - - - - - ESE 13 17 7 9 1015.2 1015.2 -
18/04:30pm - - - - - ESE 17 19 9 10 1015.0 1015.0 -
18/04:00pm - - - - - ESE 13 17 7 9 1015.1 1015.1 -
18/03:30pm - - - - - SE 15 17 8 9 1015.1 1015.1 -
18/03:00pm - - - - - ESE 13 15 7 8 1015.3 1015.3 -
18/02:30pm - - - - - ESE 15 17 8 9 1015.6 1015.6 -
18/02:00pm - - - - - ESE 15 19 8 10 1015.9 1015.9 -
18/01:30pm - - - - - SE 17 20 9 11 1016.2 1016.2 -
18/01:00pm - - - - - SE 17 20 9 11 1016.7 1016.7 -
18/12:30pm - - - - - SE 17 20 9 11 1017.1 1017.1 -
18/12:00pm - - - - - SE 17 19 9 10 1017.6 1017.6 -
18/11:30am - - - - - SSE 17 20 9 11 1018.0 1018.0 -
18/11:00am - - - - - SE 19 22 10 12 1018.3 1018.3 -
18/10:30am - - - - - SSE 19 24 10 13 1018.5 1018.5 -
18/10:00am - - - - - SSE 20 24 11 13 1018.5 1018.5 -
18/09:30am - - - - - SSE 20 24 11 13 1018.5 1018.5 -
18/09:00am - - - - - SSE 20 24 11 13 1018.3 1018.3 -
18/08:30am - - - - - SSE 19 22 10 12 1018.3 1018.3 -
18/08:00am - - - - - SSE 15 19 8 10 1018.0 1018.0 -

Other Formats:

Comma delimited format used in spreadsheet applications
http://www.bom.gov.au/fwo/IDQ60801/IDQ60801.94284.axf

JavaScript Object Notation format (JSON) in row-major order
http://www.bom.gov.au/fwo/IDQ60801/IDQ60801.94284.json